TAF Text Data
IDs:
Format:
Raw Decoded Include METAR

Data at: 0737 UTC 21 Oct 2018

KGCK 210654Z AUTO 15007KT 10SM CLR 06/02 A3032 RMK AO2 SLP259 T00610022

KGCK 210520Z 2106/2206 17008KT P6SM SKC
  FM211500 20020G30KT P6SM SKC
  FM220000 18010G20KT P6SM SKC